Terminal Aerodrome Forecast
Issued by NWS

Home | Current Version | Previous Version | Graphics & Text | Print | Product List | Glossary On
Versions: 1 2 3 4 5 6 7 8 9 10 11 12 13 14 15 16 17 18 19 20 21 22
000
FTUS43 KICT 310803 AAA
TAFHUT
TAF AMD
KHUT 310803Z 3108/0106 VRB03KT P6SM SCT030 BKN060
      TEMPO 3108/3110 3SM BR BKN015
     FM311000 VRB05KT 5SM BR OVC015
      TEMPO 3110/3113 1SM BR OVC004
     FM311700 04010KT P6SM VCTS BKN035CB
     FM010100 03005KT P6SM SCT030 BKN035=

USA.gov is the U.S. government's official web portal to all federal, state and local government web resources and services.